Time;durP1;ratioP1;P1;durP2;ratioP2;P2;SDS_P1;SDS_P2;PMS_P1;PMS_P2;Temp;Humidity;BMP_temperature;BMP_pressure;BME280_temperature;BME280_humidity;BME280_pressure;Samples;Min_cycle;Max_cycle;Signal;HPM_P1;HPM_P2
2023/10/16 00:01:28;;;;;;;5.85;1.60;;;6.60;99.90;;;;;;5057703;28;20110;-47
2023/10/16 00:03:56;;;;;;;6.90;1.60;;;6.70;99.90;;;;;;5055868;28;20046;-49
2023/10/16 00:06:21;;;;;;;3.67;1.67;;;6.90;99.90;;;;;;5066774;28;20051;-48
2023/10/16 00:08:47;;;;;;;4.72;1.80;;;6.80;99.90;;;;;;5063308;28;20048;-49
2023/10/16 00:11:24;;;;;;;5.03;1.50;;;6.90;99.90;;;;;;5060439;28;20086;-48
2023/10/16 00:13:51;;;;;;;4.20;1.20;;;7.00;99.90;;;;;;5058305;28;20128;-49
2023/10/16 00:16:19;;;;;;;5.20;1.45;;;7.00;99.90;;;;;;5064481;28;20084;-50
2023/10/16 00:18:45;;;;;;;3.50;1.50;;;7.10;99.90;;;;;;5065541;28;20060;-49
2023/10/16 00:21:13;;;;;;;3.45;1.40;;;6.90;99.90;;;;;;5067541;28;20043;-50
2023/10/16 00:23:39;;;;;;;4.88;1.45;;;7.10;99.90;;;;;;5066398;28;20078;-48
2023/10/16 00:26:14;;;;;;;3.58;1.17;;;7.00;99.90;;;;;;5064946;28;20487;-51
2023/10/16 00:28:44;;;;;;;5.40;1.40;;;7.10;99.90;;;;;;5056920;28;20479;-48
2023/10/16 00:31:13;;;;;;;7.43;1.30;;;;;;;;;;5060674;28;20047;-49
2023/10/16 00:33:40;;;;;;;5.32;1.40;;;;;;;;;;5064646;28;20141;-47
2023/10/16 00:36:07;;;;;;;4.63;1.20;;;;;;;;;;5058471;28;20036;-50
2023/10/16 00:38:37;;;;;;;3.72;1.40;;;;;;;;;;5060679;28;20561;-48
2023/10/16 00:41:46;;;;;;;3.70;1.27;;;7.30;99.90;;;;;;5067832;28;20108;-49
2023/10/16 00:43:51;;;;;;;7.13;1.90;;;7.30;99.90;;;;;;5071654;28;20433;-48
2023/10/16 00:46:30;;;;;;;2.88;1.20;;;7.20;99.90;;;;;;5072095;28;20048;-47
2023/10/16 00:48:56;;;;;;;5.53;1.30;;;7.20;99.90;;;;;;5063497;28;20132;-49
2023/10/16 00:51:22;;;;;;;5.57;1.40;;;7.20;99.90;;;;;;5057112;28;20037;-47
2023/10/16 00:53:48;;;;;;;8.07;1.65;;;7.20;99.90;;;;;;5063928;28;20364;-51
2023/10/16 00:56:14;;;;;;;4.53;1.35;;;7.20;99.90;;;;;;5055431;28;20417;-47
2023/10/16 00:58:42;;;;;;;3.35;1.15;;;7.20;99.90;;;;;;5065794;28;20048;-48
2023/10/16 01:01:09;;;;;;;3.55;1.63;;;7.20;99.90;;;;;;5059111;28;20556;-47
2023/10/16 01:03:44;;;;;;;4.68;1.33;;;7.20;99.90;;;;;;5068413;28;20041;-47
2023/10/16 01:06:19;;;;;;;3.45;1.27;;;7.20;99.90;;;;;;5063597;28;20040;-47
2023/10/16 01:08:51;;;;;;;2.90;1.30;;;7.10;99.90;;;;;;5070275;28;20047;-47
2023/10/16 01:11:20;;;;;;;3.63;1.35;;;7.00;99.90;;;;;;5067053;28;20197;-47
2023/10/16 01:13:51;;;;;;;3.35;1.38;;;7.00;99.90;;;;;;5061751;28;20139;-48
2023/10/16 01:16:17;;;;;;;4.47;1.25;;;7.00;99.90;;;;;;5058038;28;20080;-47
2023/10/16 01:18:44;;;;;;;4.30;1.52;;;6.90;99.90;;;;;;5067581;28;20047;-47
2023/10/16 01:21:13;;;;;;;5.45;1.42;;;7.00;99.90;;;;;;5058006;28;20537;-49
2023/10/16 01:23:40;;;;;;;3.75;1.38;;;7.00;99.90;;;;;;5061398;28;20090;-47
2023/10/16 01:26:06;;;;;;;4.15;1.30;;;7.00;99.90;;;;;;5067592;28;20076;-48
2023/10/16 01:28:32;;;;;;;4.53;1.60;;;7.10;99.90;;;;;;5065062;28;20040;-50
2023/10/16 01:31:00;;;;;;;4.63;1.30;;;7.10;99.90;;;;;;5060790;28;20040;-48
2023/10/16 01:33:26;;;;;;;2.88;1.30;;;7.10;99.90;;;;;;5058419;28;20048;-48
2023/10/16 01:35:52;;;;;;;2.70;1.30;;;7.10;99.90;;;;;;5062139;28;20041;-49
2023/10/16 01:38:18;;;;;;;4.78;1.13;;;7.20;99.90;;;;;;5064972;28;20056;-47
2023/10/16 01:41:04;;;;;;;2.83;1.10;;;7.20;99.90;;;;;;5062771;28;20037;-47
2023/10/16 01:43:34;;;;;;;4.28;1.25;;;7.20;99.90;;;;;;5071241;28;20075;-47
2023/10/16 01:46:08;;;;;;;3.80;1.00;;;7.20;99.90;;;;;;5062890;28;20056;-49
2023/10/16 01:48:40;;;;;;;2.38;1.10;;;7.20;99.90;;;;;;5066699;28;20044;-47
2023/10/16 01:51:09;;;;;;;3.25;1.25;;;7.20;99.90;;;;;;5064329;28;20044;-49
2023/10/16 01:53:36;;;;;;;3.95;1.30;;;7.30;99.90;;;;;;5067937;28;20045;-47
2023/10/16 01:56:12;;;;;;;3.10;1.33;;;7.30;99.90;;;;;;5057887;28;20080;-51
2023/10/16 01:58:41;;;;;;;3.60;1.20;;;7.30;99.90;;;;;;5066777;28;20086;-49
2023/10/16 02:01:21;;;;;;;3.55;1.35;;;7.40;99.90;;;;;;5058546;28;20078;-49
2023/10/16 02:03:48;;;;;;;2.80;1.25;;;;;;;;;;5069533;28;20061;-47
2023/10/16 02:06:15;;;;;;;2.20;1.20;;;7.30;99.90;;;;;;5065171;28;20045;-47
2023/10/16 02:08:45;;;;;;;3.78;1.17;;;7.40;99.90;;;;;;5066142;28;20428;-47
2023/10/16 02:11:11;;;;;;;6.75;1.30;;;7.40;99.90;;;;;;5060216;28;20433;-49
2023/10/16 02:13:38;;;;;;;3.60;1.30;;;7.40;99.90;;;;;;5070086;28;20051;-48
2023/10/16 02:16:10;;;;;;;3.47;1.50;;;7.40;99.90;;;;;;5059757;28;20032;-47
2023/10/16 02:18:37;;;;;;;5.55;1.60;;;7.40;99.90;;;;;;5068456;28;20045;-48
2023/10/16 02:21:11;;;;;;;2.78;1.55;;;7.50;99.90;;;;;;5068993;28;20368;-47
2023/10/16 02:23:37;;;;;;;5.22;1.73;;;7.50;99.90;;;;;;5057120;28;20040;-47
2023/10/16 02:26:06;;;;;;;4.82;1.50;;;7.50;99.90;;;;;;5067454;28;20047;-50
2023/10/16 02:28:35;;;;;;;4.07;1.60;;;7.50;99.90;;;;;;5065133;28;20047;-47
2023/10/16 02:31:14;;;;;;;5.32;1.70;;;7.50;99.90;;;;;;5054370;28;20041;-47
2023/10/16 02:33:45;;;;;;;3.67;1.70;;;7.50;99.90;;;;;;5062398;28;20051;-47
2023/10/16 02:36:12;;;;;;;4.40;1.95;;;7.50;99.90;;;;;;5059575;28;20040;-47
2023/10/16 02:38:38;;;;;;;4.78;1.52;;;7.50;99.90;;;;;;5058514;28;20036;-47
2023/10/16 02:41:04;;;;;;;6.65;1.58;;;7.50;99.90;;;;;;5066143;28;20040;-47
2023/10/16 02:43:31;;;;;;;8.07;2.00;;;7.50;99.90;;;;;;5057913;28;20041;-47
2023/10/16 02:46:01;;;;;;;4.53;1.90;;;7.40;99.90;;;;;;5058163;28;20080;-47
2023/10/16 02:48:27;;;;;;;6.22;1.70;;;7.40;99.90;;;;;;5070047;28;20067;-47
2023/10/16 02:50:59;;;;;;;4.32;1.63;;;7.30;99.90;;;;;;5064677;28;20582;-47
2023/10/16 02:53:27;;;;;;;6.40;1.63;;;7.30;99.90;;;;;;5068175;28;20125;-48
2023/10/16 02:55:58;;;;;;;3.08;1.58;;;7.20;99.90;;;;;;5064750;28;20151;-48
2023/10/16 02:58:26;;;;;;;3.90;1.52;;;7.10;99.90;;;;;;5056044;28;20037;-47
2023/10/16 03:00:56;;;;;;;5.25;1.75;;;7.00;99.90;;;;;;5065635;28;20132;-47
2023/10/16 03:03:27;;;;;;;4.35;1.60;;;7.00;99.90;;;;;;5067509;28;20048;-47
2023/10/16 03:05:57;;;;;;;3.60;1.38;;;6.90;99.90;;;;;;5067362;28;20044;-49
2023/10/16 03:08:30;;;;;;;8.10;1.95;;;6.90;99.90;;;;;;5053739;28;20045;-49
2023/10/16 03:11:04;;;;;;;5.80;2.03;;;6.90;99.90;;;;;;5064403;28;20044;-50
2023/10/16 03:13:30;;;;;;;5.75;1.92;;;6.90;99.90;;;;;;5068441;28;20398;-47
2023/10/16 03:16:15;;;;;;;5.80;2.00;;;6.90;99.90;;;;;;5055493;28;20041;-47
2023/10/16 03:18:44;;;;;;;11.32;2.03;;;6.90;99.90;;;;;;5065271;28;20053;-49
2023/10/16 03:23:43;;;;;;;9.15;2.00;;;7.00;99.90;;;;;;5067809;28;20378;-48
2023/10/16 03:26:25;;;;;;;5.53;2.20;;;7.00;99.90;;;;;;5063824;28;20051;-48
2023/10/16 03:28:56;;;;;;;6.70;1.90;;;7.00;99.90;;;;;;5063692;28;20466;-48
2023/10/16 03:31:22;;;;;;;8.27;2.15;;;7.00;99.90;;;;;;5063250;28;20040;-48
2023/10/16 03:33:48;;;;;;;4.95;2.20;;;6.90;99.90;;;;;;5063501;28;20048;-48
2023/10/16 03:36:15;;;;;;;4.78;1.88;;;6.80;99.90;;;;;;5061050;28;20126;-48
2023/10/16 03:38:41;;;;;;;5.07;1.88;;;6.80;99.90;;;;;;5060654;28;20097;-50
2023/10/16 03:43:56;;;;;;;3.45;2.00;;;6.60;99.90;;;;;;5068051;28;20041;-47
2023/10/16 03:46:26;;;;;;;8.60;2.17;;;6.60;99.90;;;;;;5054360;28;20076;-48
2023/10/16 03:48:53;;;;;;;5.10;2.03;;;6.60;99.90;;;;;;5063346;28;20047;-49
2023/10/16 03:51:18;;;;;;;4.68;1.98;;;6.60;99.90;;;;;;5060032;28;20128;-49
2023/10/16 03:53:44;;;;;;;5.53;2.00;;;6.60;99.90;;;;;;5061939;28;20113;-49
2023/10/16 03:56:13;;;;;;;4.20;2.08;;;6.60;99.90;;;;;;5057623;28;20044;-49
2023/10/16 03:58:43;;;;;;;10.63;2.38;;;6.60;99.90;;;;;;5063987;28;20117;-48
2023/10/16 04:01:10;;;;;;;7.07;2.20;;;6.60;99.90;;;;;;5056474;28;20044;-47
2023/10/16 04:03:56;;;;;;;5.55;2.22;;;6.70;99.90;;;;;;5058231;28;20083;-49
2023/10/16 04:06:23;;;;;;;8.10;2.28;;;6.80;99.90;;;;;;5060337;28;20482;-47
2023/10/16 04:08:53;;;;;;;3.72;2.15;;;6.80;99.90;;;;;;5059108;28;20142;-47
2023/10/16 04:11:21;;;;;;;5.05;1.90;;;6.80;99.90;;;;;;5061132;28;20040;-49
2023/10/16 04:13:49;;;;;;;4.20;2.20;;;6.90;99.90;;;;;;5068170;28;20324;-49
2023/10/16 04:17:01;;;;;;;6.15;2.72;;;6.90;99.90;;;;;;5062739;28;20056;-48
2023/10/16 04:21:43;;;;;;;3.45;2.20;;;7.00;99.90;;;;;;5068167;28;20487;-49
2023/10/16 04:27:29;;;;;;;5.85;2.50;;;7.00;99.90;;;;;;5069737;28;20060;-51
2023/10/16 04:32:20;;;;;;;5.30;2.00;;;7.00;99.90;;;;;;5074115;28;20048;-48
2023/10/16 04:34:56;;;;;;;4.03;2.33;;;7.00;99.90;;;;;;5067607;28;20048;-47
2023/10/16 04:42:49;;;;;;;6.25;2.00;;;7.10;99.90;;;;;;5064467;28;20127;-49
2023/10/16 04:58:59;;;;;;;4.88;1.88;;;7.30;99.90;;;;;;5066293;28;20121;-48
2023/10/16 05:06:05;;;;;;;7.40;2.38;;;7.30;99.90;;;;;;5063543;28;20118;-47
2023/10/16 05:08:38;;;;;;;6.07;2.13;;;7.30;99.90;;;;;;5066666;28;20487;-48
2023/10/16 05:11:27;;;;;;;5.85;2.30;;;7.30;99.90;;;;;;5064663;28;20399;-50
2023/10/16 06:14:34;;;;;;;6.85;2.50;;;6.90;99.90;;;;;;5021518;28;20063;-50
2023/10/16 06:16:59;;;;;;;8.88;3.13;;;7.10;99.90;;;;;;5070460;28;20047;-48
2023/10/16 06:19:25;;;;;;;5.65;3.10;;;7.10;99.90;;;;;;5069905;28;20044;-50
2023/10/16 06:21:52;;;;;;;8.18;3.67;;;7.20;99.90;;;;;;5056548;28;20140;-47
2023/10/16 06:24:25;;;;;;;8.18;3.35;;;7.40;99.90;;;;;;5064938;28;20064;-48
2023/10/16 06:27:10;;;;;;;7.70;3.22;;;7.40;99.90;;;;;;5065136;28;20557;-51
2023/10/16 06:29:41;;;;;;;10.25;3.45;;;;;;;;;;5058068;28;20413;-48
2023/10/16 06:32:35;;;;;;;11.88;4.25;;;;;;;;;;5061180;28;20045;-48
2023/10/16 06:34:57;;;;;;;5.82;2.90;;;;;;;;;;5058869;28;20102;-51
2023/10/16 06:37:24;;;;;;;5.18;2.80;;;;;;;;;;5059489;28;20029;-49
2023/10/16 06:39:54;;;;;;;5.60;3.20;;;;;;;;;;5059795;28;20408;-50
2023/10/16 06:42:23;;;;;;;6.30;3.35;;;8.10;99.90;;;;;;5057942;28;20072;-51
2023/10/16 06:44:53;;;;;;;9.38;3.40;;;8.10;99.90;;;;;;5062915;28;20045;-48
2023/10/16 06:47:34;;;;;;;7.97;2.63;;;8.40;99.90;;;;;;5066100;28;20408;-51
2023/10/16 06:52:52;;;;;;;7.45;3.22;;;8.40;99.90;;;;;;5067885;28;20056;-47
2023/10/16 06:55:18;;;;;;;7.13;2.92;;;8.50;99.90;;;;;;5073326;28;20121;-47
2023/10/16 06:57:44;;;;;;;7.95;2.78;;;8.60;99.90;;;;;;5069856;28;20382;-48
2023/10/16 07:00:23;;;;;;;5.90;2.60;;;8.60;99.90;;;;;;5063011;28;20032;-47
2023/10/16 07:02:56;;;;;;;6.40;3.10;;;8.70;99.90;;;;;;5072076;28;20166;-48
2023/10/16 07:05:27;;;;;;;7.75;2.90;;;8.80;99.90;;;;;;5072914;28;20052;-50
2023/10/16 07:07:56;;;;;;;3.95;2.38;;;;;;;;;;5063488;28;20095;-49
2023/10/16 07:10:23;;;;;;;4.88;2.50;;;9.00;99.90;;;;;;5054277;28;20056;-48
2023/10/16 07:13:02;;;;;;;4.22;2.30;;;9.10;99.90;;;;;;5058687;28;20379;-50
2023/10/16 07:15:29;;;;;;;4.13;2.08;;;9.30;99.90;;;;;;5053544;28;20553;-49
2023/10/16 07:18:04;;;;;;;5.60;2.53;;;9.20;99.90;;;;;;5070331;28;20147;-49
2023/10/16 07:20:33;;;;;;;3.30;2.20;;;9.40;99.90;;;;;;5061982;28;20094;-48
2023/10/16 07:22:59;;;;;;;5.30;2.55;;;9.40;99.90;;;;;;5067590;28;20106;-49
2023/10/16 07:25:47;;;;;;;3.20;2.22;;;9.50;99.90;;;;;;5064161;28;20041;-48
2023/10/16 07:28:13;;;;;;;6.57;2.55;;;9.60;99.90;;;;;;5070913;28;20040;-47
2023/10/16 07:30:42;;;;;;;2.92;2.28;;;9.60;99.90;;;;;;5067978;28;20329;-48
2023/10/16 07:33:15;;;;;;;4.95;2.50;;;9.50;99.90;;;;;;5059736;28;20043;-50
2023/10/16 07:35:45;;;;;;;5.03;2.47;;;9.50;99.90;;;;;;5063998;28;20040;-49
2023/10/16 07:38:21;;;;;;;5.88;2.38;;;9.50;99.90;;;;;;5052616;28;20045;-48
2023/10/16 07:40:53;;;;;;;6.13;2.33;;;9.50;99.90;;;;;;5059361;28;20059;-48
2023/10/16 07:43:32;;;;;;;3.92;2.22;;;9.50;99.90;;;;;;5070323;28;20518;-51
2023/10/16 07:49:01;;;;;;;8.25;2.58;;;9.60;99.90;;;;;;5068024;28;20066;-47
2023/10/16 07:51:27;;;;;;;5.72;2.47;;;9.80;99.90;;;;;;5064730;28;20079;-47
2023/10/16 07:53:56;;;;;;;4.32;2.33;;;9.90;99.90;;;;;;5070458;28;20412;-50
2023/10/16 07:56:25;;;;;;;4.18;2.30;;;9.90;99.90;;;;;;5064322;28;20044;-49
2023/10/16 07:58:56;;;;;;;3.83;2.20;;;9.90;99.90;;;;;;5070190;28;20543;-47
2023/10/16 08:01:36;;;;;;;6.22;3.05;;;9.90;99.90;;;;;;5062532;28;20143;-47
2023/10/16 08:04:06;;;;;;;4.93;2.40;;;9.90;99.90;;;;;;5061545;28;20080;-47
2023/10/16 08:06:39;;;;;;;5.85;2.40;;;9.90;99.90;;;;;;5070060;28;20040;-48
2023/10/16 08:12:12;;;;;;;4.90;2.30;;;10.20;99.90;;;;;;5055992;28;20049;-47
2023/10/16 08:14:41;;;;;;;3.53;2.00;;;10.30;99.90;;;;;;5052107;28;20127;-47
2023/10/16 08:17:23;;;;;;;6.00;2.70;;;10.50;99.90;;;;;;5062873;28;20048;-48
2023/10/16 08:19:50;;;;;;;3.13;1.92;;;10.70;99.90;;;;;;5071882;28;20045;-48
2023/10/16 08:22:16;;;;;;;4.03;2.10;;;10.60;99.90;;;;;;5063033;28;20055;-48
2023/10/16 08:24:57;;;;;;;4.97;2.33;;;10.80;99.90;;;;;;5062059;28;20044;-48
2023/10/16 08:30:34;;;;;;;5.85;2.65;;;11.00;99.90;;;;;;5070779;28;20070;-47
2023/10/16 08:33:06;;;;;;;;;;;11.10;99.90;;;;;;5070234;28;20060;-47
2023/10/16 08:35:38;;;;;;;4.32;1.70;;;11.20;99.90;;;;;;5071213;28;19920;-48
2023/10/16 08:38:26;;;;;;;5.30;1.55;;;11.30;99.90;;;;;;5071016;28;20170;-48
2023/10/16 08:41:05;;;;;;;4.65;1.60;;;11.50;99.90;;;;;;5054770;28;20051;-49
2023/10/16 08:46:30;;;;;;;2.85;1.60;;;11.60;99.90;;;;;;5057635;28;20064;-50
2023/10/16 08:48:57;;;;;;;3.03;1.17;;;11.70;99.90;;;;;;5057724;28;20475;-48
2023/10/16 08:51:23;;;;;;;3.50;1.48;;;11.70;99.90;;;;;;5061090;28;20424;-49
2023/10/16 08:53:48;;;;;;;4.28;1.50;;;11.70;99.90;;;;;;5063369;28;20044;-49
2023/10/16 08:56:18;;;;;;;6.53;1.73;;;11.70;99.90;;;;;;5063908;28;20113;-47
2023/10/16 08:58:45;;;;;;;3.17;1.33;;;11.80;99.90;;;;;;5073370;28;20036;-48
2023/10/16 09:01:13;;;;;;;4.53;1.33;;;11.80;99.90;;;;;;5054542;28;20064;-49
2023/10/16 09:03:54;;;;;;;3.95;1.33;;;11.80;99.90;;;;;;5068308;28;20044;-47
2023/10/16 09:06:24;;;;;;;4.80;1.50;;;11.80;99.90;;;;;;5058499;28;20129;-48
2023/10/16 09:08:51;;;;;;;2.45;1.17;;;11.80;99.90;;;;;;5066159;28;20075;-48
2023/10/16 09:11:19;;;;;;;5.13;1.40;;;11.90;99.90;;;;;;5074200;28;20491;-48
2023/10/16 09:13:50;;;;;;;4.40;1.40;;;12.00;99.90;;;;;;5071295;28;20076;-51
2023/10/16 09:16:15;;;;;;;3.10;1.40;;;12.10;99.90;;;;;;5073972;28;20055;-50
2023/10/16 09:18:42;;;;;;;2.85;1.20;;;12.20;99.90;;;;;;5058691;28;20048;-49
2023/10/16 09:21:13;;;;;;;3.42;1.67;;;12.30;99.90;;;;;;5054540;28;20518;-48
2023/10/16 09:23:40;;;;;;;4.05;1.50;;;12.30;99.90;;;;;;5063925;28;20036;-48
2023/10/16 09:26:07;;;;;;;3.05;1.30;;;12.30;99.90;;;;;;5069699;28;20094;-48
2023/10/16 09:28:33;;;;;;;2.38;1.30;;;12.20;99.90;;;;;;5062368;28;20036;-49
2023/10/16 09:31:02;;;;;;;3.92;1.50;;;12.20;99.90;;;;;;5064767;28;20134;-48
2023/10/16 09:33:32;;;;;;;5.15;1.35;;;12.30;99.90;;;;;;5066407;28;20381;-48
2023/10/16 09:36:01;;;;;;;1.88;1.35;;;12.30;99.90;;;;;;5071642;28;20040;-48
2023/10/16 09:38:33;;;;;;;3.72;1.40;;;12.40;99.90;;;;;;5053577;28;20123;-48
2023/10/16 09:44:07;;;;;;;3.15;1.50;;;12.50;99.90;;;;;;5084649;28;20064;-48
2023/10/16 09:49:15;;;;;;;4.28;1.50;;;12.70;99.90;;;;;;5074427;28;20049;-47
2023/10/16 09:51:44;;;;;;;3.55;1.40;;;12.80;99.90;;;;;;5065222;28;20055;-48
2023/10/16 09:54:10;;;;;;;3.60;1.40;;;12.80;99.90;;;;;;5064637;28;20044;-47
2023/10/16 09:56:40;;;;;;;5.00;1.63;;;12.90;99.90;;;;;;5065524;28;20049;-47
2023/10/16 09:59:14;;;;;;;5.15;1.55;;;13.00;99.90;;;;;;5053618;28;20048;-47
2023/10/16 10:01:42;;;;;;;5.10;1.33;;;13.00;99.90;;;;;;5063628;28;20048;-48
2023/10/16 10:04:11;;;;;;;3.28;1.63;;;13.00;99.90;;;;;;5064601;28;20041;-47
2023/10/16 10:06:39;;;;;;;4.93;1.20;;;13.20;99.90;;;;;;5069502;28;20040;-52
2023/10/16 10:15:17;;;;;;;4.15;1.20;;;13.30;99.90;;;;;;5066247;28;20414;-50
2023/10/16 10:17:46;;;;;;;3.17;1.40;;;13.70;99.90;;;;;;5061615;28;20127;-51
2023/10/16 10:20:45;;;;;;;4.40;1.48;;;13.70;99.90;;;;;;5053371;28;20519;-49
2023/10/16 10:23:08;;;;;;;6.13;1.52;;;13.60;99.90;;;;;;5067903;28;20052;-52
2023/10/16 10:25:40;;;;;;;4.38;1.35;;;13.60;99.90;;;;;;5058343;28;20080;-52
2023/10/16 10:28:28;;;;;;;7.40;1.77;;;13.60;99.90;;;;;;5060366;28;20048;-49
2023/10/16 10:31:05;;;;;;;5.05;1.33;;;13.60;99.90;;;;;;5065167;28;20113;-49
2023/10/16 10:33:42;;;;;;;5.55;1.40;;;13.70;99.90;;;;;;5054496;28;20113;-49
2023/10/16 10:36:29;;;;;;;5.57;1.60;;;13.80;99.90;;;;;;5051535;28;20416;-51
2023/10/16 10:39:20;;;;;;;4.53;1.40;;;13.80;99.90;;;;;;5063367;28;20044;-49
2023/10/16 10:41:47;;;;;;;6.07;1.42;;;13.90;99.90;;;;;;5056828;28;20048;-51
2023/10/16 10:44:14;;;;;;;2.50;0.90;;;13.90;99.90;;;;;;5066962;28;20049;-52
2023/10/16 10:46:49;;;;;;;7.47;1.60;;;14.00;99.90;;;;;;5052785;28;20034;-49
2023/10/16 10:49:15;;;;;;;5.05;1.23;;;14.00;99.90;;;;;;5059065;28;20080;-52
2023/10/16 10:51:46;;;;;;;4.00;1.10;;;13.70;99.90;;;;;;5072969;28;20155;-49
2023/10/16 10:54:15;;;;;;;5.65;1.45;;;13.80;99.90;;;;;;5064038;28;20036;-50
2023/10/16 10:56:51;;;;;;;3.50;1.20;;;14.60;99.90;;;;;;5082463;28;20044;-51
2023/10/16 10:59:40;;;;;;;2.15;1.10;;;14.10;99.90;;;;;;5079355;28;20090;-51
2023/10/16 11:04:46;;;;;;;3.33;1.33;;;14.10;99.90;;;;;;5067001;28;20060;-49
2023/10/16 11:07:12;;;;;;;3.33;1.20;;;14.10;99.90;;;;;;5060456;28;20040;-49
2023/10/16 11:09:42;;;;;;;5.75;1.30;;;14.20;99.90;;;;;;5070819;28;20203;-51
2023/10/16 11:12:08;;;;;;;3.00;1.30;;;14.30;99.90;;;;;;5058013;28;20048;-49
2023/10/16 11:14:38;;;;;;;3.65;1.15;;;14.10;99.90;;;;;;5068011;28;20093;-53
2023/10/16 11:17:07;;;;;;;3.45;1.15;;;14.00;99.90;;;;;;5066563;28;20172;-50
2023/10/16 11:19:49;;;;;;;6.15;1.25;;;13.90;99.90;;;;;;5061658;28;20044;-49
2023/10/16 11:22:23;;;;;;;6.10;1.67;;;13.80;99.90;;;;;;5071674;28;20040;-49
2023/10/16 11:24:51;;;;;;;6.32;1.40;;;13.80;99.90;;;;;;5059966;28;20052;-49
2023/10/16 11:27:17;;;;;;;;;;;13.60;99.90;;;;;;5056191;28;20125;-50
2023/10/16 11:29:45;;;;;;;4.55;1.30;;;13.60;99.90;;;;;;5058229;28;19920;-51
2023/10/16 11:32:14;;;;;;;5.50;1.33;;;13.20;99.90;;;;;;5066286;28;20510;-50
2023/10/16 11:34:49;;;;;;;6.53;1.30;;;13.10;99.90;;;;;;5063782;28;20148;-51
2023/10/16 11:37:21;;;;;;;4.53;1.10;;;12.80;99.90;;;;;;5060386;28;20096;-48
2023/10/16 11:39:48;;;;;;;4.38;1.10;;;;;;;;;;5061195;28;20503;-49
2023/10/16 11:42:14;;;;;;;7.60;1.50;;;;;;;;;;5067680;28;20521;-49
2023/10/16 11:44:42;;;;;;;5.35;1.33;;;;;;;;;;5061112;28;20049;-52
2023/10/16 11:47:09;;;;;;;5.00;1.23;;;12.30;99.90;;;;;;5064266;28;20045;-50
2023/10/16 11:49:37;;;;;;;4.47;1.13;;;12.40;99.90;;;;;;5063736;28;20045;-48
2023/10/16 11:52:09;;;;;;;5.05;1.50;;;12.30;99.90;;;;;;5070341;28;20036;-48
2023/10/16 11:54:40;;;;;;;6.97;1.20;;;12.40;99.90;;;;;;5062071;28;20049;-49
2023/10/16 11:57:06;;;;;;;3.17;1.10;;;12.50;99.90;;;;;;5067828;28;20041;-48
2023/10/16 11:59:32;;;;;;;4.57;1.13;;;12.60;99.90;;;;;;5060767;28;20132;-49
2023/10/16 12:02:10;;;;;;;4.68;1.38;;;12.60;99.90;;;;;;5063339;28;20076;-50
2023/10/16 12:04:37;;;;;;;3.22;1.00;;;12.70;99.90;;;;;;5058769;28;20389;-48
2023/10/16 12:07:02;;;;;;;2.80;0.90;;;12.90;99.90;;;;;;5063429;28;20045;-51
2023/10/16 12:09:36;;;;;;;4.93;1.02;;;13.00;99.90;;;;;;5057062;28;20331;-48
2023/10/16 12:12:06;;;;;;;3.95;1.40;;;13.10;99.90;;;;;;5063772;28;20037;-51
2023/10/16 12:14:37;;;;;;;6.20;1.40;;;13.20;99.90;;;;;;5064514;28;20529;-47
2023/10/16 12:17:06;;;;;;;3.08;1.17;;;13.40;99.90;;;;;;5066667;28;20052;-49
2023/10/16 12:19:33;;;;;;;5.65;1.30;;;13.50;99.90;;;;;;5062480;28;20530;-52
2023/10/16 12:22:00;;;;;;;3.58;1.02;;;13.50;99.90;;;;;;5058230;28;20037;-50
2023/10/16 12:24:29;;;;;;;5.38;1.45;;;13.50;99.90;;;;;;5062139;28;20045;-48
2023/10/16 12:26:54;;;;;;;1.65;0.82;;;13.60;99.90;;;;;;5061881;28;20110;-49
2023/10/16 12:29:20;;;;;;;3.88;1.42;;;13.50;99.90;;;;;;5062456;28;20036;-49
2023/10/16 12:31:48;;;;;;;8.98;1.15;;;13.50;99.90;;;;;;5066688;28;20127;-52
2023/10/16 12:34:16;;;;;;;9.13;1.27;;;13.60;99.90;;;;;;5063301;28;20053;-51
2023/10/16 12:36:43;;;;;;;4.85;0.80;;;13.70;99.90;;;;;;5071765;28;20062;-49
2023/10/16 12:39:24;;;;;;;3.05;0.93;;;13.80;99.90;;;;;;5066421;28;20048;-51
2023/10/16 12:41:57;;;;;;;2.95;1.00;;;13.90;99.90;;;;;;5055393;28;20056;-48
2023/10/16 12:44:23;;;;;;;3.38;0.90;;;14.00;99.90;;;;;;5054980;28;20048;-48
2023/10/16 12:46:56;;;;;;;5.95;1.08;;;13.80;99.90;;;;;;5056222;28;20048;-48
2023/10/16 12:49:22;;;;;;;3.90;1.48;;;13.80;99.90;;;;;;5056839;28;20048;-50
2023/10/16 12:51:49;;;;;;;5.05;1.05;;;13.70;99.90;;;;;;5065997;28;20090;-49
2023/10/16 12:54:15;;;;;;;4.32;0.90;;;13.70;99.90;;;;;;5055223;28;20524;-52
2023/10/16 12:56:43;;;;;;;2.63;1.00;;;13.50;99.90;;;;;;5074966;28;20122;-48
2023/10/16 12:59:09;;;;;;;4.30;1.42;;;13.60;99.90;;;;;;5072294;28;20443;-48
2023/10/16 13:01:38;;;;;;;5.13;1.20;;;13.60;99.90;;;;;;5074678;28;20056;-51
2023/10/16 13:04:06;;;;;;;2.92;0.90;;;13.60;99.90;;;;;;5074501;28;20044;-49
2023/10/16 13:06:32;;;;;;;3.03;0.90;;;13.80;99.90;;;;;;5074307;28;20041;-49
2023/10/16 13:09:00;;;;;;;3.92;1.00;;;13.80;99.90;;;;;;5074446;28;20106;-48
2023/10/16 13:11:27;;;;;;;4.03;1.10;;;14.00;99.90;;;;;;5074108;28;20384;-48
2023/10/16 13:13:55;;;;;;;5.85;1.20;;;13.90;99.90;;;;;;5073285;28;20171;-48
2023/10/16 13:16:24;;;;;;;4.38;1.00;;;13.80;99.90;;;;;;5054327;28;20353;-49
2023/10/16 13:18:57;;;;;;;2.53;1.00;;;14.00;99.90;;;;;;5054171;28;20041;-49
2023/10/16 13:21:33;;;;;;;2.38;1.10;;;14.00;99.90;;;;;;5058349;28;20059;-48
2023/10/16 13:24:09;;;;;;;4.82;0.90;;;14.00;99.90;;;;;;5074554;28;20132;-50
2023/10/16 13:26:38;;;;;;;4.30;1.10;;;14.00;99.90;;;;;;5074189;28;20089;-48
2023/10/16 13:29:13;;;;;;;5.18;1.00;;;14.20;99.90;;;;;;5058501;28;20080;-50
2023/10/16 13:31:46;;;;;;;2.22;1.00;;;14.30;99.90;;;;;;5066176;28;20044;-50
2023/10/16 13:34:13;;;;;;;4.05;1.20;;;14.30;99.90;;;;;;5073862;28;20526;-49
2023/10/16 13:37:01;;;;;;;7.18;1.35;;;14.50;99.90;;;;;;5073926;28;20101;-51
2023/10/16 13:39:38;;;;;;;5.28;1.13;;;14.50;99.90;;;;;;5073440;28;20360;-52
2023/10/16 13:42:08;;;;;;;3.73;1.07;;;14.40;99.90;;;;;;5073576;28;20051;-49
2023/10/16 13:44:35;;;;;;;4.00;0.98;;;14.30;99.90;;;;;;5073276;28;20060;-50
2023/10/16 13:47:05;;;;;;;4.85;0.85;;;14.30;99.90;;;;;;5072170;28;20047;-49
2023/10/16 13:49:31;;;;;;;4.55;1.13;;;14.00;99.90;;;;;;5074196;28;20050;-49
2023/10/16 13:51:58;;;;;;;5.43;1.10;;;14.00;99.90;;;;;;5072298;28;20040;-48
2023/10/16 13:54:24;;;;;;;3.65;0.95;;;14.10;99.90;;;;;;5073131;28;20136;-49
2023/10/16 13:56:50;;;;;;;2.20;1.15;;;14.00;99.90;;;;;;5073394;28;20115;-51
2023/10/16 13:59:18;;;;;;;5.50;0.95;;;13.90;99.90;;;;;;5073533;28;20372;-52
2023/10/16 14:01:44;;;;;;;4.43;1.00;;;13.80;99.90;;;;;;5060773;28;20139;-49
2023/10/16 14:04:14;;;;;;;2.00;0.90;;;13.80;99.90;;;;;;5053392;28;20517;-50
2023/10/16 14:06:51;;;;;;;5.40;1.10;;;13.90;99.90;;;;;;5053325;28;20045;-49
2023/10/16 14:09:20;;;;;;;4.28;1.10;;;13.80;99.90;;;;;;5059074;28;20048;-48
2023/10/16 14:11:48;;;;;;;7.03;1.23;;;13.80;99.90;;;;;;5073198;28;20040;-49
2023/10/16 14:14:20;;;;;;;6.32;1.40;;;13.60;99.90;;;;;;5073354;28;20079;-48
2023/10/16 14:16:51;;;;;;;4.90;1.27;;;13.40;99.90;;;;;;5072277;28;20101;-48
2023/10/16 14:19:22;;;;;;;4.07;0.88;;;;;;;;;;5064142;28;20037;-50
2023/10/16 14:21:52;;;;;;;5.65;1.50;;;12.90;99.90;;;;;;5052779;28;20510;-48
2023/10/16 14:24:24;;;;;;;5.28;0.77;;;13.20;99.90;;;;;;5053116;28;20176;-48
2023/10/16 14:26:57;;;;;;;7.47;1.27;;;13.20;99.90;;;;;;5062593;28;20041;-51
2023/10/16 14:29:24;;;;;;;2.95;1.10;;;13.20;99.90;;;;;;5073145;28;20147;-52
2023/10/16 14:31:51;;;;;;;5.80;1.08;;;13.20;99.90;;;;;;5073145;28;20135;-49
2023/10/16 14:34:23;;;;;;;6.40;1.58;;;13.10;99.90;;;;;;5070814;28;20044;-48
2023/10/16 14:36:51;;;;;;;3.85;1.10;;;13.00;99.90;;;;;;5069142;28;20045;-48
2023/10/16 14:39:17;;;;;;;5.10;1.27;;;13.10;99.90;;;;;;5073316;28;20495;-48
2023/10/16 14:41:44;;;;;;;5.00;1.20;;;13.10;99.90;;;;;;5054223;28;20041;-49
2023/10/16 14:44:13;;;;;;;3.78;1.10;;;13.00;99.90;;;;;;5063704;28;20040;-48
2023/10/16 14:46:39;;;;;;;4.78;0.90;;;13.00;99.90;;;;;;5056126;28;20471;-51
2023/10/16 14:49:09;;;;;;;3.97;1.05;;;12.90;99.90;;;;;;5056153;28;20376;-49
2023/10/16 14:51:39;;;;;;;2.55;1.10;;;13.00;99.90;;;;;;5052599;28;20049;-49
2023/10/16 14:54:12;;;;;;;5.18;1.20;;;13.00;99.90;;;;;;5066192;28;20087;-51
2023/10/16 14:56:39;;;;;;;3.28;1.15;;;13.00;99.90;;;;;;5072211;28;20455;-48
2023/10/16 14:59:09;;;;;;;6.72;1.40;;;12.90;99.90;;;;;;5071781;28;20041;-50
2023/10/16 15:01:36;;;;;;;3.90;0.90;;;;;;;;;;5071536;28;20482;-49
2023/10/16 15:04:03;;;;;;;5.13;1.20;;;12.80;99.90;;;;;;5071968;28;20483;-49
2023/10/16 15:06:29;;;;;;;4.18;1.67;;;12.80;99.90;;;;;;5058998;28;20084;-48
2023/10/16 15:08:58;;;;;;;3.45;1.10;;;12.70;99.90;;;;;;5065022;28;20037;-51
2023/10/16 15:11:28;;;;;;;4.00;1.10;;;12.70;99.90;;;;;;5053927;28;20103;-49
2023/10/16 15:13:54;;;;;;;4.43;1.35;;;12.70;99.90;;;;;;5052009;28;20102;-48
2023/10/16 15:16:21;;;;;;;4.85;1.10;;;12.70;99.90;;;;;;5056477;28;20045;-50
2023/10/16 15:18:47;;;;;;;3.72;1.10;;;12.70;99.90;;;;;;5071825;28;20040;-48
2023/10/16 15:21:13;;;;;;;4.25;0.95;;;12.60;99.90;;;;;;5070530;28;20529;-50